SBI8653 UHHH-UHWW
Flight info
| Callsign | SBI8653 |
|---|---|
| Flight time | N/A |
| Altitude | 38000 |
| Route | ARDEL2U ARDEL B355 BG/K0680F220 G714 DAGES DAGES2M |
| Aircraft | A20N/M-SDE2E3FGHIRWXY/LB1 |
Departure
| Time | N/A |
|---|---|
| Airport | Khabarovsk Novy Airport (UHHH) |
Arrival
| Time | 2026-04-10 16:46 |
|---|---|
| Airport | Vladivostok International Airport (UHWW) |
| Time | Latitude | Longitude | Altitude | Speed | Heading |
|---|---|---|---|---|---|
| 2026-04-10 15:46 | 48.24664 | 134.81627 | 21600 ft | 351 kts | 181° |
| 2026-04-10 15:46 | 48.22226 | 134.81508 | 22200 ft | 352 kts | 178° |
| 2026-04-10 15:46 | 48.19759 | 134.81628 | 22832 ft | 353 kts | 175° |
| 2026-04-10 15:46 | 48.17308 | 134.81932 | 23407 ft | 355 kts | 174° |
| 2026-04-10 15:47 | 48.14824 | 134.82251 | 23961 ft | 358 kts | 174° |
| 2026-04-10 15:47 | 48.12332 | 134.82570 | 24558 ft | 360 kts | 174° |
| 2026-04-10 15:47 | 48.09873 | 134.82889 | 25143 ft | 361 kts | 174° |
| 2026-04-10 15:47 | 48.07346 | 134.83214 | 25700 ft | 363 kts | 174° |
| 2026-04-10 15:48 | 48.04812 | 134.83539 | 26243 ft | 365 kts | 174° |
| 2026-04-10 15:48 | 48.02301 | 134.83859 | 26761 ft | 367 kts | 175° |
| 2026-04-10 15:48 | 47.99745 | 134.84187 | 27270 ft | 369 kts | 175° |
| 2026-04-10 15:48 | 47.97558 | 134.84467 | 27680 ft | 371 kts | 175° |
| 2026-04-10 15:49 | 47.94978 | 134.84798 | 28171 ft | 373 kts | 175° |
| 2026-04-10 15:49 | 47.92411 | 134.85126 | 28636 ft | 375 kts | 175° |
| 2026-04-10 15:49 | 47.89778 | 134.85461 | 29092 ft | 377 kts | 175° |
| 2026-04-10 15:49 | 47.88034 | 134.85683 | 29375 ft | 378 kts | 175° |
| 2026-04-10 15:50 | 47.84535 | 134.86125 | 29945 ft | 381 kts | 175° |
| 2026-04-10 15:50 | 47.81867 | 134.86464 | 30325 ft | 384 kts | 175° |
| 2026-04-10 15:50 | 47.79182 | 134.86803 | 30708 ft | 387 kts | 175° |
| 2026-04-10 15:50 | 47.76523 | 134.87140 | 31082 ft | 388 kts | 176° |
| 2026-04-10 15:51 | 47.73799 | 134.87485 | 31432 ft | 390 kts | 176° |
| 2026-04-10 15:51 | 47.71090 | 134.87826 | 31743 ft | 392 kts | 176° |
| 2026-04-10 15:51 | 47.69260 | 134.88058 | 31935 ft | 394 kts | 176° |
| 2026-04-10 15:51 | 47.65601 | 134.88518 | 32339 ft | 396 kts | 176° |
| 2026-04-10 15:52 | 47.62867 | 134.88864 | 32659 ft | 396 kts | 176° |
| 2026-04-10 15:52 | 47.60124 | 134.89210 | 32985 ft | 395 kts | 176° |
| 2026-04-10 15:52 | 47.57399 | 134.89554 | 33294 ft | 394 kts | 177° |
| 2026-04-10 15:52 | 47.54622 | 134.89905 | 33567 ft | 394 kts | 177° |
| 2026-04-10 15:53 | 47.51892 | 134.90250 | 33816 ft | 394 kts | 177° |
| 2026-04-10 15:53 | 47.49181 | 134.90590 | 34061 ft | 394 kts | 177° |
| 2026-04-10 15:53 | 47.47343 | 134.90820 | 34221 ft | 394 kts | 178° |
| 2026-04-10 15:53 | 47.43712 | 134.91273 | 34514 ft | 394 kts | 178° |
| 2026-04-10 15:54 | 47.40948 | 134.91620 | 34721 ft | 395 kts | 178° |
| 2026-04-10 15:54 | 47.38194 | 134.91965 | 34893 ft | 396 kts | 178° |
| 2026-04-10 15:54 | 47.35457 | 134.92307 | 35055 ft | 397 kts | 178° |
| 2026-04-10 15:54 | 47.32663 | 134.92653 | 35234 ft | 398 kts | 178° |
| 2026-04-10 15:55 | 47.29915 | 134.92996 | 35418 ft | 399 kts | 178° |
| 2026-04-10 15:55 | 47.28032 | 134.93231 | 35553 ft | 398 kts | 178° |
| 2026-04-10 15:55 | 47.24344 | 134.93692 | 35880 ft | 396 kts | 178° |
| 2026-04-10 15:55 | 47.21630 | 134.94029 | 36068 ft | 396 kts | 179° |
| 2026-04-10 15:56 | 47.18837 | 134.94376 | 36197 ft | 398 kts | 179° |
| 2026-04-10 15:56 | 47.16087 | 134.94714 | 36313 ft | 400 kts | 179° |
| 2026-04-10 15:56 | 47.13274 | 134.95061 | 36435 ft | 402 kts | 179° |
| 2026-04-10 15:56 | 47.10479 | 134.95407 | 36540 ft | 404 kts | 179° |
| 2026-04-10 15:57 | 47.04798 | 134.96109 | 36748 ft | 408 kts | 179° |
| 2026-04-10 15:57 | 47.01984 | 134.96458 | 36877 ft | 409 kts | 179° |
| 2026-04-10 15:57 | 46.99133 | 134.96811 | 36996 ft | 410 kts | 179° |
| 2026-04-10 15:58 | 46.93380 | 134.97520 | 37195 ft | 413 kts | 179° |
| 2026-04-10 15:58 | 46.90499 | 134.97876 | 37302 ft | 415 kts | 179° |
| 2026-04-10 15:58 | 46.87630 | 134.98227 | 37402 ft | 416 kts | 180° |
| 2026-04-10 15:59 | 46.81777 | 134.98621 | 37495 ft | 416 kts | 185° |
| 2026-04-10 15:59 | 46.75985 | 134.98116 | 37495 ft | 413 kts | 189° |
| 2026-04-10 16:00 | 46.70241 | 134.97333 | 37497 ft | 414 kts | 189° |
| 2026-04-10 16:00 | 46.64484 | 134.96558 | 37487 ft | 415 kts | 189° |
| 2026-04-10 16:01 | 46.58721 | 134.95778 | 37481 ft | 415 kts | 189° |
| 2026-04-10 16:01 | 46.52950 | 134.94998 | 37473 ft | 414 kts | 189° |
| 2026-04-10 16:02 | 46.47173 | 134.94217 | 37477 ft | 414 kts | 189° |
| 2026-04-10 16:02 | 46.41426 | 134.93445 | 37467 ft | 413 kts | 189° |
| 2026-04-10 16:03 | 46.35684 | 134.92671 | 37467 ft | 414 kts | 189° |
| 2026-04-10 16:03 | 46.29919 | 134.91896 | 37467 ft | 415 kts | 189° |
| 2026-04-10 16:04 | 46.24189 | 134.91128 | 37463 ft | 416 kts | 189° |
| 2026-04-10 16:04 | 46.19342 | 134.90483 | 37466 ft | 417 kts | 189° |
| 2026-04-10 16:05 | 46.12567 | 134.89583 | 37460 ft | 416 kts | 189° |
| 2026-04-10 16:05 | 46.06800 | 134.88817 | 37446 ft | 415 kts | 190° |
| 2026-04-10 16:06 | 46.01050 | 134.88054 | 37441 ft | 414 kts | 190° |
| 2026-04-10 16:06 | 45.95316 | 134.86986 | 37437 ft | 411 kts | 195° |
| 2026-04-10 16:07 | 45.89766 | 134.84909 | 37440 ft | 409 kts | 202° |
| 2026-04-10 16:07 | 45.84472 | 134.81859 | 37436 ft | 412 kts | 209° |
| 2026-04-10 16:08 | 45.80243 | 134.78615 | 37448 ft | 414 kts | 212° |
| 2026-04-10 16:08 | 45.75205 | 134.74564 | 37445 ft | 415 kts | 213° |
| 2026-04-10 16:09 | 45.69291 | 134.69804 | 37446 ft | 415 kts | 213° |
| 2026-04-10 16:09 | 45.64272 | 134.65768 | 37445 ft | 415 kts | 212° |
| 2026-04-10 16:10 | 45.60077 | 134.62401 | 37448 ft | 415 kts | 213° |
| 2026-04-10 16:10 | 45.54166 | 134.57665 | 37438 ft | 414 kts | 213° |
| 2026-04-10 16:11 | 45.49070 | 134.53589 | 37443 ft | 415 kts | 213° |
| 2026-04-10 16:11 | 45.44019 | 134.49558 | 37440 ft | 414 kts | 213° |
| 2026-04-10 16:12 | 45.38942 | 134.45512 | 37444 ft | 419 kts | 213° |
| 2026-04-10 16:13 | 45.32068 | 134.40048 | 37430 ft | 425 kts | 213° |
| 2026-04-10 16:13 | 45.27436 | 134.36377 | 37428 ft | 428 kts | 213° |
| 2026-04-10 16:14 | 45.23080 | 134.32924 | 37429 ft | 431 kts | 212° |
| 2026-04-10 16:14 | 45.17815 | 134.28740 | 37434 ft | 434 kts | 212° |
| 2026-04-10 16:15 | 45.12493 | 134.24535 | 37429 ft | 436 kts | 212° |
| 2026-04-10 16:15 | 45.08436 | 134.21343 | 37428 ft | 438 kts | 212° |
| 2026-04-10 16:16 | 45.03053 | 134.17119 | 37423 ft | 440 kts | 212° |
| 2026-04-10 16:16 | 44.97715 | 134.12942 | 37415 ft | 428 kts | 212° |
| 2026-04-10 16:17 | 44.91749 | 134.08292 | 37422 ft | 417 kts | 212° |
| 2026-04-10 16:17 | 44.87569 | 134.05040 | 37419 ft | 417 kts | 212° |
| 2026-04-10 16:18 | 44.81627 | 134.00397 | 37423 ft | 417 kts | 214° |
| 2026-04-10 16:18 | 44.76605 | 133.96274 | 37419 ft | 417 kts | 214° |
| 2026-04-10 16:19 | 44.72382 | 133.92806 | 37348 ft | 418 kts | 214° |
| 2026-04-10 16:19 | 44.69859 | 133.90736 | 37127 ft | 416 kts | 214° |
| 2026-04-10 16:19 | 44.67357 | 133.88692 | 36919 ft | 413 kts | 214° |
| 2026-04-10 16:19 | 44.64888 | 133.86676 | 36714 ft | 411 kts | 214° |
| 2026-04-10 16:20 | 44.62401 | 133.84648 | 36501 ft | 408 kts | 214° |
| 2026-04-10 16:20 | 44.59943 | 133.82649 | 36292 ft | 406 kts | 214° |
| 2026-04-10 16:20 | 44.56689 | 133.80003 | 36019 ft | 405 kts | 213° |
| 2026-04-10 16:20 | 44.54198 | 133.77980 | 35802 ft | 405 kts | 213° |
| 2026-04-10 16:21 | 44.52580 | 133.76668 | 35660 ft | 405 kts | 213° |
| 2026-04-10 16:21 | 44.49319 | 133.74025 | 35351 ft | 406 kts | 213° |
| 2026-04-10 16:21 | 44.47672 | 133.72690 | 35125 ft | 406 kts | 213° |
| 2026-04-10 16:21 | 44.44404 | 133.70024 | 34455 ft | 407 kts | 216° |
| 2026-04-10 16:22 | 44.42873 | 133.68507 | 33996 ft | 408 kts | 221° |
| 2026-04-10 16:22 | 44.40782 | 133.65848 | 33209 ft | 414 kts | 228° |
| 2026-04-10 16:22 | 44.38898 | 133.62767 | 32333 ft | 424 kts | 231° |
| 2026-04-10 16:22 | 44.36431 | 133.58437 | 31413 ft | 429 kts | 231° |
| 2026-04-10 16:23 | 44.34563 | 133.55153 | 30910 ft | 426 kts | 230° |
| 2026-04-10 16:23 | 44.31087 | 133.49069 | 30147 ft | 416 kts | 230° |
| 2026-04-10 16:23 | 44.29856 | 133.46927 | 29768 ft | 414 kts | 230° |
| 2026-04-10 16:24 | 44.27910 | 133.43549 | 29193 ft | 411 kts | 230° |
| 2026-04-10 16:24 | 44.26102 | 133.40416 | 28630 ft | 408 kts | 230° |
| 2026-04-10 16:24 | 44.24319 | 133.37329 | 28036 ft | 405 kts | 230° |
| 2026-04-10 16:24 | 44.22567 | 133.34297 | 27456 ft | 402 kts | 229° |
| 2026-04-10 16:25 | 44.20813 | 133.31251 | 26874 ft | 399 kts | 229° |
| 2026-04-10 16:25 | 44.19090 | 133.28261 | 26304 ft | 397 kts | 229° |
| 2026-04-10 16:25 | 44.17375 | 133.25288 | 25697 ft | 396 kts | 229° |
| 2026-04-10 16:25 | 44.15648 | 133.22305 | 25139 ft | 393 kts | 230° |
| 2026-04-10 16:26 | 44.13930 | 133.19338 | 24594 ft | 391 kts | 229° |
| 2026-04-10 16:26 | 44.12242 | 133.16429 | 24064 ft | 388 kts | 229° |
| 2026-04-10 16:26 | 44.10539 | 133.13500 | 23517 ft | 386 kts | 229° |
| 2026-04-10 16:26 | 44.08858 | 133.10614 | 23034 ft | 382 kts | 229° |
| 2026-04-10 16:27 | 44.07195 | 133.07764 | 22577 ft | 378 kts | 229° |
| 2026-04-10 16:27 | 44.05397 | 133.04678 | 22128 ft | 372 kts | 229° |
| 2026-04-10 16:27 | 44.03783 | 133.01915 | 21699 ft | 368 kts | 229° |
| 2026-04-10 16:27 | 44.02166 | 132.99149 | 21280 ft | 363 kts | 230° |
| 2026-04-10 16:28 | 44.00591 | 132.96458 | 20872 ft | 359 kts | 230° |
| 2026-04-10 16:28 | 43.99023 | 132.93780 | 20456 ft | 355 kts | 229° |
| 2026-04-10 16:28 | 43.97485 | 132.91156 | 20055 ft | 350 kts | 230° |
| 2026-04-10 16:28 | 43.95953 | 132.88547 | 19664 ft | 346 kts | 229° |
| 2026-04-10 16:29 | 43.89844 | 132.78168 | 18033 ft | 332 kts | 230° |
| 2026-04-10 16:30 | 43.88382 | 132.75707 | 17625 ft | 330 kts | 230° |
| 2026-04-10 16:30 | 43.86944 | 132.73292 | 17220 ft | 327 kts | 230° |
| 2026-04-10 16:30 | 43.85506 | 132.70874 | 16807 ft | 325 kts | 230° |
| 2026-04-10 16:30 | 43.84062 | 132.68440 | 16385 ft | 323 kts | 231° |
| 2026-04-10 16:31 | 43.82656 | 132.66069 | 15977 ft | 320 kts | 231° |
| 2026-04-10 16:31 | 43.81256 | 132.63707 | 15579 ft | 318 kts | 231° |
| 2026-04-10 16:31 | 43.79849 | 132.61334 | 15179 ft | 315 kts | 231° |
| 2026-04-10 16:31 | 43.78463 | 132.58995 | 14770 ft | 313 kts | 232° |
| 2026-04-10 16:32 | 43.77099 | 132.56700 | 14377 ft | 310 kts | 231° |
| 2026-04-10 16:32 | 43.75740 | 132.54410 | 13981 ft | 308 kts | 232° |
| 2026-04-10 16:32 | 43.74375 | 132.52113 | 13575 ft | 305 kts | 233° |
| 2026-04-10 16:32 | 43.73047 | 132.49880 | 13200 ft | 302 kts | 232° |
| 2026-04-10 16:33 | 43.71713 | 132.47638 | 12830 ft | 299 kts | 233° |
| 2026-04-10 16:33 | 43.70412 | 132.45451 | 12471 ft | 295 kts | 233° |
| 2026-04-10 16:33 | 43.69118 | 132.43277 | 12103 ft | 292 kts | 233° |
| 2026-04-10 16:33 | 43.67829 | 132.41116 | 11739 ft | 289 kts | 233° |
| 2026-04-10 16:34 | 43.66562 | 132.38994 | 11376 ft | 286 kts | 233° |
| 2026-04-10 16:34 | 43.65294 | 132.36873 | 11010 ft | 283 kts | 234° |
| 2026-04-10 16:34 | 43.64047 | 132.34786 | 10647 ft | 280 kts | 233° |
| 2026-04-10 16:34 | 43.62828 | 132.32738 | 10289 ft | 277 kts | 233° |
| 2026-04-10 16:35 | 43.61614 | 132.30701 | 9970 ft | 272 kts | 234° |
| 2026-04-10 16:35 | 43.60422 | 132.28705 | 9939 ft | 262 kts | 234° |
| 2026-04-10 16:35 | 43.59272 | 132.26778 | 9686 ft | 261 kts | 234° |
| 2026-04-10 16:35 | 43.58131 | 132.24869 | 9355 ft | 259 kts | 234° |
| 2026-04-10 16:36 | 43.56979 | 132.22948 | 9037 ft | 258 kts | 235° |
| 2026-04-10 16:36 | 43.55841 | 132.21054 | 8735 ft | 255 kts | 235° |
| 2026-04-10 16:36 | 43.54720 | 132.19188 | 8439 ft | 252 kts | 235° |
| 2026-04-10 16:36 | 43.53602 | 132.17331 | 8145 ft | 251 kts | 235° |
| 2026-04-10 16:37 | 43.52507 | 132.15505 | 7853 ft | 249 kts | 235° |
| 2026-04-10 16:37 | 43.51391 | 132.13652 | 7556 ft | 248 kts | 235° |
| 2026-04-10 16:37 | 43.50295 | 132.11836 | 7266 ft | 247 kts | 236° |
| 2026-04-10 16:37 | 43.49250 | 132.09970 | 6964 ft | 244 kts | 240° |
| 2026-04-10 16:38 | 43.48342 | 132.07997 | 6669 ft | 241 kts | 245° |
| 2026-04-10 16:38 | 43.47544 | 132.06012 | 6385 ft | 239 kts | 245° |
| 2026-04-10 16:38 | 43.46741 | 132.04015 | 6108 ft | 237 kts | 245° |
| 2026-04-10 16:38 | 43.45950 | 132.02045 | 5820 ft | 235 kts | 246° |
| 2026-04-10 16:39 | 43.45163 | 132.00078 | 5540 ft | 234 kts | 246° |
| 2026-04-10 16:39 | 43.44372 | 131.98106 | 5254 ft | 232 kts | 246° |
| 2026-04-10 16:39 | 43.43595 | 131.96182 | 4978 ft | 229 kts | 245° |
| 2026-04-10 16:39 | 43.42829 | 131.94282 | 4728 ft | 225 kts | 245° |
| 2026-04-10 16:40 | 43.42072 | 131.92410 | 4487 ft | 220 kts | 245° |
| 2026-04-10 16:40 | 43.41345 | 131.90610 | 4250 ft | 215 kts | 245° |
| 2026-04-10 16:40 | 43.40568 | 131.88869 | 4052 ft | 212 kts | 233° |
| 2026-04-10 16:40 | 43.39343 | 131.87756 | 3904 ft | 214 kts | 203° |
| 2026-04-10 16:41 | 43.37862 | 131.87611 | 3763 ft | 221 kts | 174° |
| 2026-04-10 16:41 | 43.36407 | 131.88426 | 3631 ft | 229 kts | 156° |
| 2026-04-10 16:41 | 43.35026 | 131.89511 | 3485 ft | 226 kts | 154° |
| 2026-04-10 16:41 | 43.33709 | 131.90569 | 3396 ft | 214 kts | 155° |
| 2026-04-10 16:42 | 43.32454 | 131.91565 | 3272 ft | 202 kts | 155° |
| 2026-04-10 16:42 | 43.31403 | 131.92778 | 3005 ft | 204 kts | 123° |
| 2026-04-10 16:42 | 43.31218 | 131.94650 | 2772 ft | 196 kts | 70° |
| 2026-04-10 16:42 | 43.31835 | 131.96207 | 2615 ft | 183 kts | 52° |
| 2026-04-10 16:43 | 43.32531 | 131.97647 | 2416 ft | 175 kts | 52° |
| 2026-04-10 16:43 | 43.33163 | 131.99017 | 2237 ft | 168 kts | 54° |
| 2026-04-10 16:43 | 43.33762 | 132.00380 | 2012 ft | 165 kts | 56° |
| 2026-04-10 16:43 | 43.34331 | 132.01723 | 1808 ft | 163 kts | 57° |
| 2026-04-10 16:44 | 43.34892 | 132.03085 | 1677 ft | 162 kts | 58° |
| 2026-04-10 16:44 | 43.35423 | 132.04395 | 1671 ft | 152 kts | 58° |
| 2026-04-10 16:44 | 43.35931 | 132.05646 | 1654 ft | 150 kts | 58° |
| 2026-04-10 16:44 | 43.36439 | 132.06892 | 1665 ft | 150 kts | 59° |
| 2026-04-10 16:45 | 43.36934 | 132.08164 | 1452 ft | 150 kts | 60° |
| 2026-04-10 16:45 | 43.37453 | 132.09390 | 1096 ft | 147 kts | 58° |
| 2026-04-10 16:45 | 43.37929 | 132.10634 | 735 ft | 144 kts | 63° |
| 2026-04-10 16:45 | 43.38420 | 132.11810 | 373 ft | 142 kts | 59° |
| 2026-04-10 16:46 | 43.38888 | 132.12956 | 95 ft | 134 kts | 62° |
| 2026-04-10 16:46 | 43.39277 | 132.13936 | 30 ft | 82 kts | 63° |
| 2026-04-10 16:46 | 43.39460 | 132.14406 | 40 ft | 25 kts | 60° |
| 2026-04-10 16:46 | 43.39482 | 132.14461 | 41 ft | 4 kts | 61° |
| 2026-04-10 16:47 | 43.39517 | 132.14548 | 41 ft | 15 kts | 62° |
| 2026-04-10 16:47 | 43.39587 | 132.14720 | 42 ft | 25 kts | 60° |
| 2026-04-10 16:47 | 43.39685 | 132.14957 | 46 ft | 31 kts | 59° |
| 2026-04-10 16:47 | 43.39795 | 132.15230 | 50 ft | 31 kts | 62° |
| 2026-04-10 16:48 | 43.39891 | 132.15482 | 49 ft | 29 kts | 63° |
| 2026-04-10 16:48 | 43.39981 | 132.15721 | 48 ft | 27 kts | 63° |
| 2026-04-10 16:48 | 43.40079 | 132.15951 | 44 ft | 27 kts | 61° |
| 2026-04-10 16:48 | 43.40169 | 132.16185 | 40 ft | 27 kts | 62° |
| 2026-04-10 16:49 | 43.40264 | 132.16422 | 33 ft | 28 kts | 62° |
| 2026-04-10 16:49 | 43.40362 | 132.16664 | 29 ft | 28 kts | 61° |
| 2026-04-10 16:49 | 43.40368 | 132.16893 | 28 ft | 25 kts | 144° |
| 2026-04-10 16:49 | 43.40315 | 132.16939 | 28 ft | 0 kts | 149° |
| 2026-04-10 16:50 | 43.40307 | 132.16945 | 28 ft | 2 kts | 149° |
| 2026-04-10 16:50 | 43.40284 | 132.16963 | 28 ft | 5 kts | 152° |
| 2026-04-10 16:51 | 43.40243 | 132.16992 | 28 ft | 7 kts | 152° |
| 2026-04-10 16:51 | 43.40191 | 132.17029 | 29 ft | 9 kts | 153° |
| 2026-04-10 16:51 | 43.40132 | 132.17076 | 30 ft | 10 kts | 149° |
| 2026-04-10 16:51 | 43.40066 | 132.17104 | 32 ft | 8 kts | 207° |
| 2026-04-10 16:52 | 43.40055 | 132.17094 | 32 ft | 1 kts | 202° |
| 2026-04-10 16:52 | 43.40038 | 132.17091 | 32 ft | 2 kts | 172° |
| 2026-04-10 16:52 | 43.40014 | 132.17104 | 33 ft | 4 kts | 154° |
| 2026-04-10 16:52 | 43.39984 | 132.17127 | 33 ft | 6 kts | 151° |
| 2026-04-10 16:53 | 43.39980 | 132.17129 | 33 ft | 0 kts | 151° |